Time;durP1;ratioP1;P1;durP2;ratioP2;P2;SDS_P1;SDS_P2;PMS_P1;PMS_P2;Temp;Humidity;BMP_temperature;BMP_pressure;BME280_temperature;BME280_humidity;BME280_pressure;Samples;Min_cycle;Max_cycle;Signal;HPM_P1;HPM_P2
2023/10/26 00:00:25;;;;;;;4.18;3.50;;;13.60;77.40;;;;;;5027809;28;20033;-76
2023/10/26 00:02:51;;;;;;;4.60;3.60;;;13.60;77.40;;;;;;5011148;28;20434;-77
2023/10/26 00:05:18;;;;;;;3.88;3.05;;;13.70;77.40;;;;;;5026788;28;20035;-77
2023/10/26 00:07:43;;;;;;;4.25;3.40;;;13.70;77.50;;;;;;5028687;28;20128;-78
2023/10/26 00:10:09;;;;;;;4.32;3.45;;;13.60;77.40;;;;;;5027706;28;20100;-77
2023/10/26 00:12:35;;;;;;;4.60;3.50;;;13.60;77.40;;;;;;5028507;28;20033;-78
2023/10/26 00:15:01;;;;;;;3.83;3.03;;;13.60;77.40;;;;;;5028561;28;20475;-78
2023/10/26 00:17:27;;;;;;;4.93;3.47;;;13.60;77.40;;;;;;5027221;28;20036;-77
2023/10/26 00:19:53;;;;;;;3.75;3.10;;;13.60;77.40;;;;;;5027952;28;20030;-78
2023/10/26 00:22:19;;;;;;;5.60;3.58;;;13.60;77.40;;;;;;5027371;28;20593;-77
2023/10/26 00:24:45;;;;;;;3.70;3.10;;;13.60;77.50;;;;;;5028388;28;20029;-78
2023/10/26 00:27:11;;;;;;;4.03;3.22;;;13.60;77.40;;;;;;5027880;28;20040;-77
2023/10/26 00:29:37;;;;;;;4.10;3.40;;;13.60;77.40;;;;;;4995456;28;20046;-78
2023/10/26 00:32:06;;;;;;;4.25;3.22;;;13.60;77.50;;;;;;5028915;28;20095;-78
2023/10/26 00:34:34;;;;;;;4.28;3.55;;;13.60;77.50;;;;;;5027541;28;20033;-78
2023/10/26 00:37:00;;;;;;;4.30;3.30;;;13.60;77.50;;;;;;5026306;28;20092;-77
2023/10/26 00:39:26;;;;;;;4.35;3.22;;;13.50;77.40;;;;;;5012405;28;20034;-77
2023/10/26 00:41:52;;;;;;;4.00;3.42;;;13.50;77.40;;;;;;5031924;28;20437;-77
2023/10/26 00:44:18;;;;;;;4.03;3.28;;;13.50;77.40;;;;;;5013025;28;20025;-77
2023/10/26 00:46:44;;;;;;;4.78;3.47;;;13.50;77.40;;;;;;5026939;28;20068;-77
2023/10/26 00:49:14;;;;;;;3.95;3.38;;;13.50;77.40;;;;;;5026716;28;20069;-78
2023/10/26 00:51:40;;;;;;;4.10;3.17;;;13.50;77.40;;;;;;5026376;28;20036;-78
2023/10/26 00:54:07;;;;;;;4.03;3.35;;;13.50;77.40;;;;;;5026905;28;20029;-78
2023/10/26 00:56:35;;;;;;;4.30;3.60;;;13.50;77.50;;;;;;5008687;28;20732;-79
2023/10/26 00:59:03;;;;;;;4.13;3.45;;;13.50;77.50;;;;;;5014916;28;20029;-77
2023/10/26 01:01:30;;;;;;;4.63;3.70;;;13.40;77.40;;;;;;5025210;28;20029;-77
2023/10/26 01:03:57;;;;;;;3.83;3.30;;;13.50;77.50;;;;;;5024552;28;20029;-77
2023/10/26 01:06:23;;;;;;;4.07;3.15;;;13.40;77.50;;;;;;5009468;28;21025;-78
2023/10/26 01:08:49;;;;;;;5.10;3.67;;;13.40;77.40;;;;;;5027589;28;20041;-77
2023/10/26 01:11:15;;;;;;;5.00;3.60;;;13.40;77.40;;;;;;5027195;28;20079;-77
2023/10/26 01:13:41;;;;;;;4.47;3.40;;;13.40;77.40;;;;;;5027406;28;20055;-78
2023/10/26 01:16:07;;;;;;;4.55;3.63;;;13.40;77.40;;;;;;5009537;28;20045;-78
2023/10/26 01:18:33;;;;;;;4.22;3.42;;;13.40;77.40;;;;;;5023107;28;20052;-77
2023/10/26 01:20:59;;;;;;;4.57;3.55;;;13.40;77.40;;;;;;5026393;28;20067;-77
2023/10/26 01:23:25;;;;;;;4.90;3.63;;;13.30;77.40;;;;;;5026484;28;20123;-77
2023/10/26 01:25:55;;;;;;;5.13;3.60;;;13.40;77.50;;;;;;5022132;28;20128;-77
2023/10/26 01:28:23;;;;;;;4.82;3.80;;;13.40;77.50;;;;;;5028008;28;20019;-78
2023/10/26 01:30:49;;;;;;;4.28;3.55;;;13.30;77.40;;;;;;5025306;28;20033;-79
2023/10/26 01:33:15;;;;;;;4.32;3.42;;;13.30;77.50;;;;;;5028362;28;20026;-77
2023/10/26 01:35:44;;;;;;;4.18;3.47;;;13.30;77.50;;;;;;5025275;28;20045;-77
2023/10/26 01:38:10;;;;;;;5.20;3.85;;;13.30;77.50;;;;;;5021448;28;20026;-78
2023/10/26 01:40:35;;;;;;;5.00;4.10;;;13.30;77.50;;;;;;5025039;28;20078;-78
2023/10/26 01:43:01;;;;;;;4.32;3.45;;;13.30;77.50;;;;;;5025140;28;20124;-77
2023/10/26 01:45:27;;;;;;;5.13;3.97;;;13.30;77.50;;;;;;5025418;28;20037;-78
2023/10/26 01:47:54;;;;;;;5.10;3.92;;;13.30;77.50;;;;;;5021871;28;20030;-77
2023/10/26 01:50:20;;;;;;;5.07;3.72;;;13.30;77.50;;;;;;4997488;28;20063;-77
2023/10/26 01:52:46;;;;;;;5.63;4.28;;;13.20;77.50;;;;;;5010531;28;20091;-77
2023/10/26 01:55:12;;;;;;;5.07;4.15;;;13.30;77.50;;;;;;5025769;28;20387;-79
2023/10/26 01:57:37;;;;;;;5.25;4.05;;;13.30;77.60;;;;;;5022817;28;20022;-78
2023/10/26 02:00:04;;;;;;;4.90;3.97;;;13.20;77.50;;;;;;4992910;28;20029;-77
2023/10/26 02:02:37;;;;;;;4.85;3.63;;;13.20;77.50;;;;;;5010053;28;20053;-77
2023/10/26 02:05:04;;;;;;;5.13;4.18;;;13.20;77.50;;;;;;5006481;28;20026;-77
2023/10/26 02:07:29;;;;;;;5.32;4.03;;;13.20;77.50;;;;;;5026299;28;20036;-78
2023/10/26 02:09:56;;;;;;;4.80;3.85;;;13.20;77.50;;;;;;5009140;28;20029;-77
2023/10/26 02:12:22;;;;;;;5.20;4.13;;;13.20;77.50;;;;;;5008505;28;20124;-77
2023/10/26 02:14:48;;;;;;;4.85;3.85;;;13.20;77.50;;;;;;5026364;28;20183;-78
2023/10/26 02:17:16;;;;;;;5.30;4.13;;;13.20;77.50;;;;;;4997750;28;20049;-77
2023/10/26 02:19:42;;;;;;;5.15;4.18;;;13.20;77.50;;;;;;5029593;28;20033;-78
2023/10/26 02:22:07;;;;;;;5.22;3.85;;;13.20;77.50;;;;;;5029303;28;20108;-77
2023/10/26 02:24:33;;;;;;;5.13;4.10;;;13.20;77.50;;;;;;5015680;28;20605;-77
2023/10/26 02:26:59;;;;;;;5.38;4.30;;;13.20;77.50;;;;;;5009496;28;20034;-77
2023/10/26 02:29:25;;;;;;;5.43;4.30;;;13.20;77.50;;;;;;5015658;28;20493;-77
2023/10/26 02:31:50;;;;;;;5.00;4.10;;;13.20;77.50;;;;;;5012831;28;20113;-77
2023/10/26 02:34:16;;;;;;;5.63;4.50;;;13.20;77.50;;;;;;5031321;28;20026;-77
2023/10/26 02:36:42;;;;;;;5.13;4.13;;;13.10;77.50;;;;;;5011271;28;20033;-77
2023/10/26 02:39:07;;;;;;;6.00;4.45;;;13.20;77.60;;;;;;5033533;28;20505;-78
2023/10/26 02:41:33;;;;;;;5.45;4.57;;;13.20;77.50;;;;;;5026862;28;20139;-77
2023/10/26 02:43:59;;;;;;;5.35;4.28;;;13.20;77.60;;;;;;5015222;28;20032;-77
2023/10/26 02:46:24;;;;;;;5.20;4.13;;;13.20;78.20;;;;;;5012701;28;20040;-77
2023/10/26 02:48:50;;;;;;;5.85;4.72;;;13.10;77.50;;;;;;5019264;28;20045;-77
2023/10/26 02:51:16;;;;;;;5.40;4.18;;;13.20;77.60;;;;;;5035043;28;20041;-79
2023/10/26 02:53:42;;;;;;;5.28;4.40;;;13.10;77.50;;;;;;5022454;28;20033;-77
2023/10/26 02:56:08;;;;;;;5.80;4.65;;;13.10;77.60;;;;;;5029531;28;20034;-77
2023/10/26 02:58:34;;;;;;;5.45;4.50;;;13.10;77.50;;;;;;5020140;28;20026;-77
2023/10/26 03:01:00;;;;;;;6.18;4.93;;;13.10;77.60;;;;;;5026234;28;20029;-77
2023/10/26 03:03:26;;;;;;;5.60;4.45;;;13.10;77.60;;;;;;5019915;28;20030;-77
2023/10/26 03:05:52;;;;;;;5.65;4.50;;;13.10;77.60;;;;;;5014531;28;20064;-77
2023/10/26 03:08:18;;;;;;;5.40;4.50;;;13.10;77.60;;;;;;5018975;28;20021;-78
2023/10/26 03:10:44;;;;;;;5.53;4.50;;;13.10;77.60;;;;;;5017136;28;20053;-77
2023/10/26 03:13:10;;;;;;;5.22;4.25;;;13.10;77.80;;;;;;5037155;28;20360;-77
2023/10/26 03:15:36;;;;;;;5.60;4.50;;;13.10;78.30;;;;;;5044158;28;20084;-77
2023/10/26 03:18:02;;;;;;;5.80;4.63;;;13.10;77.60;;;;;;5020575;28;20057;-77
2023/10/26 03:20:31;;;;;;;6.50;4.38;;;13.10;77.60;;;;;;5017271;28;20045;-77
2023/10/26 03:22:57;;;;;;;6.10;4.82;;;13.10;77.70;;;;;;5033231;28;20112;-77
2023/10/26 03:25:22;;;;;;;5.13;3.92;;;13.00;77.60;;;;;;5020628;28;20128;-78
2023/10/26 03:27:48;;;;;;;4.93;4.20;;;13.00;77.60;;;;;;5018140;28;20038;-77
2023/10/26 03:30:15;;;;;;;5.70;4.72;;;13.10;77.70;;;;;;5033651;28;20029;-77
2023/10/26 03:32:42;;;;;;;5.75;4.68;;;13.00;77.60;;;;;;5017557;28;20030;-78
2023/10/26 03:35:08;;;;;;;5.38;4.25;;;13.00;77.60;;;;;;5035288;28;20033;-78
2023/10/26 03:37:36;;;;;;;5.80;4.57;;;13.00;77.60;;;;;;5017882;28;20033;-77
2023/10/26 03:40:05;;;;;;;5.55;4.82;;;13.00;77.70;;;;;;5020197;28;20033;-78
2023/10/26 03:42:31;;;;;;;5.65;4.53;;;13.00;77.70;;;;;;5015086;28;20026;-77
2023/10/26 03:44:56;;;;;;;5.78;4.85;;;13.00;77.60;;;;;;5022718;28;20075;-77
2023/10/26 03:47:22;;;;;;;5.78;4.85;;;13.00;77.70;;;;;;5022748;28;20494;-78
2023/10/26 03:49:51;;;;;;;5.05;4.22;;;13.00;77.70;;;;;;5041235;28;20041;-78
2023/10/26 03:52:21;;;;;;;5.88;4.70;;;13.00;77.60;;;;;;5034595;28;20462;-77
2023/10/26 03:54:48;;;;;;;6.20;5.32;;;12.90;77.60;;;;;;5016345;28;20040;-77
2023/10/26 03:57:17;;;;;;;5.88;4.80;;;12.90;77.60;;;;;;5032960;28;20034;-77
2023/10/26 03:59:43;;;;;;;6.25;5.05;;;12.90;77.60;;;;;;5034223;28;20032;-77
2023/10/26 04:02:09;;;;;;;5.40;4.50;;;12.90;77.60;;;;;;5015875;28;20075;-79
2023/10/26 04:04:34;;;;;;;5.72;4.68;;;12.90;77.60;;;;;;5016516;28;20421;-77
2023/10/26 04:07:00;;;;;;;6.07;4.85;;;12.90;77.60;;;;;;5016448;28;20034;-77
2023/10/26 04:09:27;;;;;;;6.07;5.00;;;12.90;77.60;;;;;;5046531;28;20064;-77
2023/10/26 04:11:53;;;;;;;6.00;4.68;;;12.90;77.60;;;;;;5040017;28;20083;-77
2023/10/26 04:14:19;;;;;;;6.10;4.85;;;12.90;77.60;;;;;;5040490;28;20029;-78
2023/10/26 04:16:47;;;;;;;5.72;4.72;;;12.90;77.70;;;;;;5033031;28;20422;-77
2023/10/26 04:19:14;;;;;;;6.05;4.97;;;12.90;77.70;;;;;;5040853;28;20115;-77
2023/10/26 04:21:39;;;;;;;6.07;4.78;;;12.90;77.70;;;;;;5021095;28;20033;-77
2023/10/26 04:24:05;;;;;;;5.90;4.78;;;12.90;77.70;;;;;;5024590;28;20023;-77
2023/10/26 04:26:31;;;;;;;5.68;4.78;;;12.90;77.70;;;;;;5030181;28;20091;-77
2023/10/26 04:28:57;;;;;;;7.15;5.35;;;12.80;77.60;;;;;;5025846;28;20036;-78
2023/10/26 04:31:23;;;;;;;6.10;4.82;;;12.80;77.70;;;;;;5001374;28;20037;-77
2023/10/26 04:33:49;;;;;;;6.07;4.85;;;12.90;77.70;;;;;;5031004;28;20033;-77
2023/10/26 04:36:15;;;;;;;6.07;4.85;;;12.80;77.70;;;;;;5041671;28;20619;-77
2023/10/26 04:38:41;;;;;;;6.18;4.97;;;12.80;77.70;;;;;;5031113;28;20494;-77
2023/10/26 04:41:06;;;;;;;6.15;5.20;;;12.80;77.60;;;;;;5030292;28;20026;-77
2023/10/26 04:43:32;;;;;;;6.68;5.38;;;12.80;77.60;;;;;;5029877;28;20033;-77
2023/10/26 04:45:58;;;;;;;6.90;5.53;;;12.80;77.70;;;;;;5037261;28;20030;-77
2023/10/26 04:48:24;;;;;;;6.38;5.03;;;12.90;77.70;;;;;;5035961;28;20865;-78
2023/10/26 04:50:49;;;;;;;6.35;5.22;;;12.80;77.70;;;;;;5035699;28;20056;-85
2023/10/26 04:53:15;;;;;;;6.70;5.50;;;12.80;77.80;;;;;;4997217;28;20037;-79
2023/10/26 04:55:41;;;;;;;7.13;5.75;;;12.80;77.70;;;;;;5031045;28;20033;-78
2023/10/26 04:58:08;;;;;;;6.75;5.60;;;12.80;77.70;;;;;;5033416;28;20055;-78
2023/10/26 05:00:34;;;;;;;6.55;5.28;;;12.80;77.70;;;;;;5017923;28;20040;-77
2023/10/26 05:02:59;;;;;;;6.75;5.18;;;12.80;77.70;;;;;;5036773;28;20029;-77
2023/10/26 05:05:26;;;;;;;6.53;5.40;;;12.80;77.70;;;;;;5041262;28;20078;-77
2023/10/26 05:07:51;;;;;;;6.50;5.13;;;12.80;77.70;;;;;;5033672;28;20029;-77
2023/10/26 05:10:17;;;;;;;5.55;4.53;;;12.80;77.70;;;;;;5034117;28;20470;-77
2023/10/26 05:12:43;;;;;;;6.65;5.55;;;12.80;77.80;;;;;;5034048;28;20037;-77
2023/10/26 05:15:09;;;;;;;6.65;5.13;;;12.70;77.70;;;;;;5037871;28;20036;-79
2023/10/26 05:17:36;;;;;;;6.65;5.45;;;12.80;77.80;;;;;;5017278;28;20124;-77
2023/10/26 05:20:03;;;;;;;6.40;5.30;;;12.70;77.70;;;;;;5032208;28;20032;-80
2023/10/26 05:22:29;;;;;;;6.43;5.35;;;12.70;77.70;;;;;;5033885;28;20086;-79
2023/10/26 05:24:54;;;;;;;6.30;5.07;;;12.70;77.70;;;;;;5025694;28;20530;-77
2023/10/26 05:27:20;;;;;;;6.65;5.40;;;12.70;77.70;;;;;;5018102;28;20025;-77
2023/10/26 05:29:46;;;;;;;6.65;5.20;;;12.70;77.70;;;;;;5036947;28;20056;-77
2023/10/26 05:32:12;;;;;;;6.90;5.60;;;12.70;77.70;;;;;;5017068;28;20087;-77
2023/10/26 05:34:37;;;;;;;6.43;5.32;;;12.70;77.70;;;;;;5017343;28;20026;-78
2023/10/26 05:37:03;;;;;;;6.25;5.13;;;12.70;77.70;;;;;;5019665;28;20030;-78
2023/10/26 05:39:31;;;;;;;6.88;5.40;;;12.70;77.70;;;;;;5023725;28;20032;-82
2023/10/26 05:41:58;;;;;;;6.60;5.20;;;12.70;77.80;;;;;;4999011;28;20484;-78
2023/10/26 05:44:25;;;;;;;6.88;5.88;;;12.70;77.70;;;;;;5036352;28;20033;-77
2023/10/26 05:46:50;;;;;;;6.20;5.28;;;12.70;77.80;;;;;;5002547;28;20758;-77
2023/10/26 05:49:16;;;;;;;6.22;4.97;;;12.70;77.80;;;;;;5038320;28;20039;-77
2023/10/26 05:51:42;;;;;;;6.40;5.47;;;12.70;77.80;;;;;;4999549;28;20037;-78
2023/10/26 05:54:08;;;;;;;6.63;5.28;;;12.70;77.80;;;;;;5026694;28;20037;-77
2023/10/26 05:56:33;;;;;;;6.68;5.72;;;12.70;77.70;;;;;;5030037;28;20025;-77
2023/10/26 05:58:59;;;;;;;6.22;5.20;;;12.70;77.70;;;;;;5041487;28;20037;-77
2023/10/26 06:01:25;;;;;;;6.28;5.20;;;12.70;77.80;;;;;;5048883;28;20078;-77
2023/10/26 06:03:51;;;;;;;6.25;5.18;;;12.70;77.80;;;;;;4980657;28;20083;-76
2023/10/26 06:06:16;;;;;;;6.45;5.10;;;12.70;77.80;;;;;;5041483;28;20021;-77
2023/10/26 06:08:42;;;;;;;6.28;5.07;;;12.70;77.80;;;;;;5017266;28;20336;-77
2023/10/26 06:11:08;;;;;;;7.07;5.60;;;12.70;77.80;;;;;;5008377;28;20048;-77
2023/10/26 06:13:34;;;;;;;6.57;5.13;;;12.70;77.80;;;;;;5025882;28;20021;-78
2023/10/26 06:15:59;;;;;;;6.28;4.93;;;12.70;77.80;;;;;;5036357;28;20049;-77
2023/10/26 06:18:25;;;;;;;6.30;5.13;;;12.70;77.80;;;;;;5003682;28;20028;-78
2023/10/26 06:21:01;;;;;;;6.60;5.65;;;12.70;77.80;;;;;;5031650;28;20505;-77
2023/10/26 06:23:27;;;;;;;6.47;5.40;;;12.70;77.80;;;;;;5032057;28;20494;-77
2023/10/26 06:26:01;;;;;;;6.60;4.95;;;12.70;77.80;;;;;;5041801;28;20493;-77
2023/10/26 06:28:28;;;;;;;6.75;5.32;;;12.70;77.90;;;;;;5019395;28;20359;-76
2023/10/26 06:30:54;;;;;;;6.05;4.78;;;12.70;77.80;;;;;;5037864;28;20033;-77
2023/10/26 06:33:20;;;;;;;6.30;4.88;;;12.60;77.80;;;;;;5038752;28;20024;-76
2023/10/26 06:35:47;;;;;;;6.07;4.95;;;12.70;77.90;;;;;;5038749;28;20030;-76
2023/10/26 06:38:13;;;;;;;6.25;5.07;;;12.60;77.80;;;;;;5007435;28;20037;-77
2023/10/26 06:40:39;;;;;;;6.40;5.00;;;12.60;77.80;;;;;;5014213;28;20124;-77
2023/10/26 06:43:05;;;;;;;6.70;5.15;;;12.60;77.80;;;;;;5036511;28;20029;-77
2023/10/26 06:45:30;;;;;;;5.88;4.72;;;12.60;77.80;;;;;;5010228;28;20021;-77
2023/10/26 06:47:56;;;;;;;6.32;5.22;;;12.60;77.90;;;;;;5049134;28;20374;-77
2023/10/26 06:50:25;;;;;;;6.43;4.90;;;12.60;77.90;;;;;;5023817;28;20037;-77
2023/10/26 06:52:51;;;;;;;6.07;4.97;;;12.60;77.80;;;;;;5017192;28;20444;-77
2023/10/26 06:55:16;;;;;;;6.38;4.82;;;12.60;77.80;;;;;;5026320;28;20033;-78
2023/10/26 06:57:42;;;;;;;5.55;4.53;;;12.60;77.90;;;;;;5023173;28;20051;-77
2023/10/26 07:00:09;;;;;;;5.70;4.53;;;12.60;77.80;;;;;;5026421;28;20033;-77
2023/10/26 07:02:36;;;;;;;5.68;4.60;;;12.60;77.90;;;;;;5025186;28;20516;-77
2023/10/26 07:05:05;;;;;;;5.93;4.68;;;12.60;77.90;;;;;;5038814;28;20033;-82
2023/10/26 07:07:36;;;;;;;5.57;4.65;;;12.60;77.90;;;;;;5020068;28;20040;-77
2023/10/26 07:10:02;;;;;;;5.40;4.60;;;12.60;77.90;;;;;;5039479;28;20101;-77
2023/10/26 07:12:30;;;;;;;5.88;4.88;;;12.60;77.90;;;;;;5002298;28;20045;-77
2023/10/26 07:14:59;;;;;;;5.85;4.75;;;12.60;77.90;;;;;;5031654;28;20447;-78
2023/10/26 07:17:25;;;;;;;5.43;4.68;;;12.60;77.90;;;;;;5035943;28;20037;-78
2023/10/26 07:19:51;;;;;;;5.13;4.28;;;12.60;77.90;;;;;;5008147;28;20068;-78
2023/10/26 07:22:16;;;;;;;6.20;4.45;;;12.60;77.90;;;;;;5020274;28;20021;-77
2023/10/26 07:24:42;;;;;;;5.65;4.70;;;12.60;77.90;;;;;;5042273;28;20036;-78
2023/10/26 07:27:08;;;;;;;5.53;4.60;;;12.60;77.90;;;;;;5017703;28;20386;-77
2023/10/26 07:29:34;;;;;;;5.45;4.40;;;12.60;77.90;;;;;;5042211;28;20030;-77
2023/10/26 07:32:00;;;;;;;5.85;4.50;;;12.60;78.00;;;;;;5012324;28;20045;-77
2023/10/26 07:34:26;;;;;;;5.05;4.28;;;12.60;77.90;;;;;;4986756;28;20432;-77
2023/10/26 07:36:51;;;;;;;5.07;3.95;;;12.60;78.00;;;;;;4998426;28;20041;-78
2023/10/26 07:39:17;;;;;;;4.93;3.97;;;12.60;77.90;;;;;;5036325;28;20044;-78
2023/10/26 07:41:43;;;;;;;5.40;4.32;;;12.60;77.90;;;;;;5007970;28;20100;-80
2023/10/26 07:44:09;;;;;;;5.05;4.30;;;12.60;78.00;;;;;;5026045;28;20038;-78
2023/10/26 07:46:35;;;;;;;5.40;4.20;;;12.60;78.00;;;;;;5042153;28;20042;-78
2023/10/26 07:49:03;;;;;;;5.30;4.32;;;12.60;78.00;;;;;;5017833;28;20080;-77
2023/10/26 07:51:28;;;;;;;5.53;4.30;;;12.60;78.00;;;;;;5033615;28;20036;-79
2023/10/26 07:53:54;;;;;;;6.25;4.60;;;12.60;78.00;;;;;;5031904;28;20045;-77
2023/10/26 07:56:20;;;;;;;5.20;4.18;;;12.60;77.90;;;;;;5041255;28;20087;-78
2023/10/26 07:58:46;;;;;;;4.75;3.75;;;12.60;77.90;;;;;;5024440;28;20120;-77
2023/10/26 08:01:12;;;;;;;5.20;4.32;;;12.70;78.00;;;;;;5039943;28;20029;-77
2023/10/26 08:03:38;;;;;;;4.80;3.90;;;12.60;77.90;;;;;;5043630;28;20036;-77
2023/10/26 08:06:06;;;;;;;5.30;4.47;;;12.60;77.90;;;;;;5019895;28;20477;-77
2023/10/26 08:08:32;;;;;;;4.75;3.70;;;12.60;78.00;;;;;;5036264;28;20475;-78
2023/10/26 08:11:12;;;;;;;5.47;4.13;;;12.60;77.90;;;;;;5032302;28;20087;-77
2023/10/26 08:13:38;;;;;;;5.07;4.00;;;12.70;78.10;;;;;;5045312;28;20021;-78
2023/10/26 08:16:05;;;;;;;4.88;3.72;;;12.70;77.90;;;;;;5044707;28;20056;-77
2023/10/26 08:18:30;;;;;;;5.43;4.43;;;12.60;77.90;;;;;;5025796;28;20382;-77
2023/10/26 08:20:56;;;;;;;4.50;3.58;;;12.70;78.00;;;;;;5013585;28;20033;-78
2023/10/26 08:23:22;;;;;;;5.05;4.07;;;12.70;78.00;;;;;;5045407;28;20386;-77
2023/10/26 08:25:48;;;;;;;5.35;4.28;;;12.70;78.00;;;;;;5045938;28;20037;-78
2023/10/26 08:28:15;;;;;;;4.80;3.97;;;12.70;78.00;;;;;;5031796;28;20032;-77
2023/10/26 08:30:41;;;;;;;4.90;4.03;;;12.70;78.00;;;;;;5022932;28;20060;-79
2023/10/26 08:33:07;;;;;;;4.93;3.83;;;12.70;78.00;;;;;;5035511;28;20095;-78
2023/10/26 08:35:34;;;;;;;4.70;3.70;;;12.70;78.00;;;;;;5033717;28;20034;-78
2023/10/26 08:37:59;;;;;;;6.03;4.28;;;12.70;78.00;;;;;;5016239;28;20033;-79
2023/10/26 08:40:25;;;;;;;5.03;3.97;;;12.70;78.00;;;;;;5024339;28;20438;-77
2023/10/26 08:42:51;;;;;;;4.93;4.18;;;12.70;78.00;;;;;;5018095;28;20026;-77
2023/10/26 08:45:26;;;;;;;5.07;4.13;;;12.70;78.00;;;;;;5009024;28;20061;-77
2023/10/26 08:47:52;;;;;;;;;;;12.70;78.00;;;;;;5035542;28;20482;-78
2023/10/26 08:50:22;;;;;;;4.32;3.60;;;12.70;77.80;;;;;;5043132;28;19919;-79
2023/10/26 08:52:49;;;;;;;4.68;3.92;;;12.70;77.80;;;;;;5034073;28;20087;-80
2023/10/26 08:55:15;;;;;;;5.20;3.90;;;12.70;77.90;;;;;;5040636;28;20033;-78
2023/10/26 08:57:47;;;;;;;5.18;3.70;;;12.70;77.90;;;;;;5020552;28;20032;-77
2023/10/26 09:00:13;;;;;;;5.00;4.03;;;12.70;78.00;;;;;;5045649;28;20478;-77
2023/10/26 09:02:39;;;;;;;5.10;3.85;;;12.80;78.00;;;;;;5041737;28;20508;-78
2023/10/26 09:05:08;;;;;;;4.65;3.80;;;12.80;78.10;;;;;;5020594;28;20120;-77
2023/10/26 09:07:37;;;;;;;5.32;3.88;;;12.80;78.00;;;;;;5034081;28;20029;-76
2023/10/26 09:10:03;;;;;;;4.78;3.67;;;12.80;78.10;;;;;;5032441;28;20033;-77
2023/10/26 09:12:29;;;;;;;4.90;4.13;;;12.80;78.00;;;;;;5023854;28;20367;-77
2023/10/26 09:15:06;;;;;;;5.53;4.50;;;12.80;78.00;;;;;;5034572;28;20064;-77
2023/10/26 09:17:33;;;;;;;5.60;4.25;;;12.80;78.10;;;;;;5041848;28;20501;-77
2023/10/26 09:20:15;;;;;;;5.22;4.20;;;12.90;78.10;;;;;;5036285;28;20408;-76
2023/10/26 09:22:40;;;;;;;5.22;4.10;;;12.90;78.10;;;;;;5037439;28;20063;-77
2023/10/26 09:25:11;;;;;;;5.43;4.35;;;12.90;78.10;;;;;;5033774;28;20790;-77
2023/10/26 09:27:38;;;;;;;5.78;4.72;;;12.90;78.10;;;;;;5012158;28;20116;-77
2023/10/26 09:30:05;;;;;;;5.78;4.22;;;12.90;78.00;;;;;;5015943;28;20482;-77
2023/10/26 09:32:32;;;;;;;5.35;4.45;;;12.90;78.00;;;;;;5045152;28;20025;-77
2023/10/26 09:34:57;;;;;;;5.90;5.05;;;12.90;78.00;;;;;;5045364;28;20535;-77
2023/10/26 09:37:23;;;;;;;5.70;4.43;;;12.90;78.00;;;;;;5031333;28;20037;-77
2023/10/26 09:39:51;;;;;;;5.80;4.68;;;12.90;78.00;;;;;;5002621;28;20037;-77
2023/10/26 09:42:18;;;;;;;5.90;4.60;;;13.00;78.10;;;;;;5034160;28;20025;-79
2023/10/26 09:44:44;;;;;;;6.18;5.03;;;12.90;78.00;;;;;;5036091;28;20479;-79
2023/10/26 09:47:11;;;;;;;6.07;4.70;;;13.00;78.00;;;;;;5024341;28;20037;-78
2023/10/26 09:49:37;;;;;;;6.72;5.10;;;13.00;78.10;;;;;;5039399;28;20382;-77
2023/10/26 09:52:03;;;;;;;5.82;4.68;;;13.00;78.00;;;;;;5038498;28;20097;-77
2023/10/26 09:54:33;;;;;;;6.15;4.50;;;13.10;78.10;;;;;;5003715;28;20036;-79
2023/10/26 09:57:18;;;;;;;6.50;5.35;;;13.00;78.10;;;;;;5049394;28;20111;-77
2023/10/26 09:59:49;;;;;;;6.28;4.93;;;13.10;78.20;;;;;;5036623;28;20041;-78
2023/10/26 10:02:16;;;;;;;5.85;4.63;;;13.10;78.10;;;;;;5044912;28;20040;-79
2023/10/26 10:04:42;;;;;;;6.18;4.90;;;13.10;78.00;;;;;;5022766;28;20028;-79
2023/10/26 10:07:08;;;;;;;6.13;5.10;;;13.10;78.00;;;;;;5008031;28;20026;-79
2023/10/26 10:10:10;;;;;;;6.47;5.10;;;13.10;78.00;;;;;;5025537;28;20034;-79
2023/10/26 10:12:38;;;;;;;5.80;4.88;;;13.10;78.20;;;;;;5032005;28;20033;-78
2023/10/26 10:15:09;;;;;;;6.70;4.90;;;13.10;78.00;;;;;;5030252;28;20105;-78
2023/10/26 10:17:44;;;;;;;6.65;5.55;;;13.20;78.10;;;;;;5027328;28;20115;-78
2023/10/26 10:20:19;;;;;;;;;;;13.20;78.10;;;;;;5045105;28;20056;-77
2023/10/26 10:22:48;;;;;;;6.05;4.53;;;13.20;77.90;;;;;;5040497;28;19912;-79
2023/10/26 10:25:17;;;;;;;6.20;5.13;;;13.20;77.80;;;;;;5038209;28;20034;-78
2023/10/26 10:27:49;;;;;;;6.15;5.07;;;13.20;77.90;;;;;;5012141;28;20037;-78
2023/10/26 10:30:18;;;;;;;5.82;4.57;;;13.20;77.90;;;;;;5039720;28;20033;-78
2023/10/26 10:32:47;;;;;;;6.50;5.20;;;13.20;77.90;;;;;;5039343;28;20116;-78
2023/10/26 10:35:27;;;;;;;6.70;5.22;;;13.20;77.90;;;;;;5027756;28;20025;-79
2023/10/26 10:38:14;;;;;;;6.78;5.13;;;13.20;78.00;;;;;;5034760;28;20572;-78
2023/10/26 10:40:40;;;;;;;7.15;5.35;;;13.30;78.00;;;;;;5026222;28;20470;-79
2023/10/26 10:43:06;;;;;;;7.22;5.97;;;13.30;77.90;;;;;;5025929;28;20037;-78
2023/10/26 10:45:32;;;;;;;6.90;5.60;;;13.30;77.90;;;;;;5008443;28;20520;-77
2023/10/26 10:47:58;;;;;;;7.50;5.72;;;13.30;78.00;;;;;;5042029;28;20112;-78
2023/10/26 10:50:25;;;;;;;7.28;5.68;;;13.30;77.90;;;;;;5018610;28;20096;-79
2023/10/26 10:52:56;;;;;;;6.95;5.40;;;13.40;78.00;;;;;;5014052;28;20040;-78
2023/10/26 10:55:26;;;;;;;7.88;6.15;;;13.40;78.00;;;;;;5039224;28;20048;-82
2023/10/26 10:57:59;;;;;;;7.43;5.63;;;13.40;78.00;;;;;;5032141;28;20030;-78
2023/10/26 11:00:43;;;;;;;7.20;5.65;;;13.40;77.90;;;;;;5030376;28;20029;-77
2023/10/26 11:03:08;;;;;;;6.43;5.28;;;13.40;78.00;;;;;;5027196;28;20426;-78
2023/10/26 11:05:39;;;;;;;6.53;5.38;;;13.50;77.90;;;;;;5019157;28;20040;-79
2023/10/26 11:08:06;;;;;;;7.22;5.50;;;13.40;77.80;;;;;;5047528;28;20026;-77
2023/10/26 11:10:33;;;;;;;7.22;5.72;;;13.50;77.90;;;;;;5021828;28;20035;-77
2023/10/26 11:12:59;;;;;;;7.85;5.88;;;13.50;77.80;;;;;;5029490;28;20065;-78
2023/10/26 11:15:35;;;;;;;7.13;5.82;;;13.50;77.80;;;;;;5035762;28;20106;-78
2023/10/26 11:18:03;;;;;;;6.85;5.40;;;13.60;77.90;;;;;;5038343;28;20045;-77
2023/10/26 11:20:39;;;;;;;7.13;5.43;;;13.60;77.80;;;;;;5025856;28;20382;-79
2023/10/26 11:23:06;;;;;;;7.38;5.50;;;13.60;77.80;;;;;;5041384;28;20068;-77
2023/10/26 11:25:32;;;;;;;6.10;4.78;;;13.60;77.70;;;;;;5029244;28;20022;-78
2023/10/26 11:27:58;;;;;;;6.05;4.95;;;13.60;77.70;;;;;;5035144;28;20113;-76
2023/10/26 11:30:23;;;;;;;6.75;5.35;;;13.70;77.70;;;;;;5034708;28;20040;-77
2023/10/26 11:32:49;;;;;;;6.80;5.05;;;13.70;77.60;;;;;;5019084;28;20553;-78
2023/10/26 11:35:16;;;;;;;6.97;5.25;;;13.70;77.90;;;;;;5027083;28;20108;-77
2023/10/26 11:37:44;;;;;;;7.18;5.13;;;13.70;77.60;;;;;;5039196;28;20096;-76
2023/10/26 11:40:14;;;;;;;6.20;5.05;;;13.70;77.60;;;;;;5025915;28;20041;-77
2023/10/26 11:42:50;;;;;;;6.72;5.60;;;13.80;77.60;;;;;;5022487;28;20051;-78
2023/10/26 11:45:21;;;;;;;7.15;5.60;;;13.80;77.60;;;;;;5042244;28;20059;-77
2023/10/26 11:48:00;;;;;;;7.05;5.78;;;13.80;77.60;;;;;;5022416;28;20025;-77
2023/10/26 11:50:27;;;;;;;7.35;5.93;;;13.80;77.60;;;;;;5041583;28;20037;-76
2023/10/26 11:52:57;;;;;;;6.78;5.20;;;13.80;77.50;;;;;;5016989;28;20057;-77
2023/10/26 11:55:24;;;;;;;7.10;5.90;;;13.90;77.60;;;;;;5018330;28;20060;-77
2023/10/26 11:57:51;;;;;;;6.68;5.25;;;13.80;77.50;;;;;;5038264;28;20033;-77
2023/10/26 12:00:18;;;;;;;7.47;6.03;;;13.90;77.50;;;;;;5019102;28;20033;-77
2023/10/26 12:02:44;;;;;;;6.45;5.30;;;13.90;77.50;;;;;;5043404;28;20029;-77
2023/10/26 12:05:18;;;;;;;6.40;5.20;;;13.90;77.40;;;;;;5044650;28;20066;-77
2023/10/26 12:07:45;;;;;;;7.20;5.77;;;14.00;77.50;;;;;;5001148;28;20467;-77
2023/10/26 12:10:12;;;;;;;6.60;5.38;;;14.00;77.50;;;;;;5050734;28;20025;-77
2023/10/26 12:12:38;;;;;;;7.10;5.75;;;14.00;77.50;;;;;;5047485;28;20033;-77
2023/10/26 12:15:08;;;;;;;7.00;5.70;;;14.00;77.50;;;;;;5035440;28;20029;-77
2023/10/26 12:17:34;;;;;;;6.70;5.50;;;14.00;77.50;;;;;;5045896;28;20068;-77
2023/10/26 12:20:00;;;;;;;6.80;5.05;;;14.00;77.40;;;;;;5024206;28;20041;-77
2023/10/26 12:22:26;;;;;;;7.25;5.65;;;14.00;77.40;;;;;;5017688;28;20080;-77
2023/10/26 12:24:52;;;;;;;6.57;5.72;;;14.10;77.50;;;;;;5045076;28;20107;-77
2023/10/26 12:27:18;;;;;;;6.75;5.50;;;14.00;77.30;;;;;;5045192;28;20092;-81
2023/10/26 12:29:45;;;;;;;7.03;5.70;;;14.10;77.40;;;;;;5029957;28;20025;-77
2023/10/26 12:32:11;;;;;;;6.25;5.15;;;14.10;77.30;;;;;;5003581;28;20040;-76
2023/10/26 12:34:37;;;;;;;6.95;5.88;;;14.10;77.30;;;;;;5027789;28;20037;-77
2023/10/26 12:37:06;;;;;;;7.35;6.35;;;14.10;77.30;;;;;;5037362;28;20462;-77
2023/10/26 12:39:32;;;;;;;7.68;5.95;;;14.10;77.30;;;;;;5035665;28;20029;-77
2023/10/26 12:41:58;;;;;;;8.48;6.22;;;14.10;77.20;;;;;;5032519;28;20074;-77
2023/10/26 12:44:25;;;;;;;6.90;5.90;;;14.20;77.20;;;;;;5036780;28;20075;-77
2023/10/26 12:46:52;;;;;;;7.85;6.30;;;14.20;77.20;;;;;;5024651;28;20064;-77